Pagrindinis puslapis
METAR-TAF:

METAR-TAF

Oro uostai :

Portland International Jetport

Portland, Meinas, Jungtinės Amerikos Valstijos

platuma: 43-38-32N, ilguma: 070-18-16W, Aukštis: 22 m

Dabartinis oras

Ataskaita buvo paskelbta 27 minutes, ne 06:51 UTC
Vėjas 14 kt iš Vakarų su gūsio iki 22 kt
Temperatūra -1°C
Drėgmė 43%
Slėgis 1001 hPa
Matomumas: 16.1 km
Išsisklaidę debesys ne aukštis 5500 ft

METAR: KPWM 280651Z AUTO 26014G22KT 10SM SCT055 M01/M12 A2956 RMK AO2 SLP010 T10111122

Laikas: 02:18 (07:18 UTC)

Prognozė

Ataskaita buvo paskelbta 1 valandą ir 46 minutes, ne 05:32 UTC
Prognozė galioja nuo 28 metu 06 UTC su 29 metu 06 UTC
Vėjas 12 kt iš Vakarų su gūsio iki 21 kt
Matomumas: 10 km
Mažai debesys ne aukštis 5000 ft
Nuo 28 metu 0700 UTC
Vėjas 12 kt iš Pietvakarių
Matomumas: 10 km
Išsisklaidę debesys ne aukštis 25000 ft
Nuo 28 metu 1500 UTC
Vėjas 17 kt iš Vakarų/Pietvakarių su gūsio iki 26 kt
Matomumas: 10 km
Mažai debesys ne aukštis 25000 ft

TAF: KPWM 280532Z 2806/2906 26012G21KT P6SM FEW050 FM280700 23012KT P6SM SCT250 FM281500 25017G26KT P6SM FEW250

Orai ataskaitas ir orų prognozės (METAR, TAF).

turimą stotys yra geltonos ir raudonos taškus žemėlapyje.

Perkelti pele per norėdami pamatyti stoties vardą.

Tada spustelėkite, norėdami matyti oro stebėjimo ir prognozės.

Norėdami pakeisti žemėlapį: spustelėkite ant žalios mygtukų su juodo kryžiaus žemyn,; žalią mygtuką su brūkšneliu, jei norite nutolinti; arba žalių rodyklių gretimoms žemėlapius.


METAR-TAF: